createdAt,value
2018-03-15T00:00:02.720Z,36.80
2018-03-15T00:00:35.105Z,36.70
2018-03-15T00:01:07.400Z,36.90
2018-03-15T00:01:40.360Z,37.00
2018-03-15T00:02:12.594Z,37.00
2018-03-15T00:02:44.880Z,36.80
2018-03-15T00:03:17.983Z,36.90
2018-03-15T00:03:50.214Z,36.90
2018-03-15T00:04:23.281Z,36.80
2018-03-15T00:04:55.605Z,36.80
2018-03-15T00:05:27.871Z,36.80
2018-03-15T00:06:00.236Z,36.90
2018-03-15T00:06:32.382Z,36.90
2018-03-15T00:07:04.616Z,36.80
2018-03-15T00:07:36.792Z,36.80
2018-03-15T00:08:09.097Z,36.80
2018-03-15T00:08:41.426Z,37.40
2018-03-15T00:09:13.432Z,36.90
2018-03-15T00:09:45.703Z,36.90
2018-03-15T00:10:17.696Z,36.90
2018-03-15T00:10:50.003Z,37.20
2018-03-15T00:11:22.278Z,37.00
2018-03-15T00:11:54.506Z,36.90
2018-03-15T00:12:26.849Z,37.00
2018-03-15T00:12:58.999Z,36.90
2018-03-15T00:13:31.190Z,37.00
2018-03-15T00:14:03.326Z,36.80
2018-03-15T00:14:35.333Z,36.90
2018-03-15T00:15:08.390Z,36.90
2018-03-15T00:15:40.715Z,36.90
2018-03-15T00:16:13.005Z,36.80
2018-03-15T00:16:45.230Z,36.80
2018-03-15T00:17:17.551Z,36.90
2018-03-15T00:17:50.656Z,36.80
2018-03-15T00:18:22.913Z,36.80
2018-03-15T00:18:55.149Z,36.80
2018-03-15T00:19:27.350Z,36.90
2018-03-15T00:19:59.371Z,36.80
2018-03-15T00:20:31.621Z,36.90
2018-03-15T00:21:03.868Z,36.90
2018-03-15T00:21:36.091Z,36.80
2018-03-15T00:22:08.276Z,36.90
2018-03-15T00:22:40.405Z,36.90
2018-03-15T00:23:12.630Z,36.90
2018-03-15T00:23:44.901Z,36.80
2018-03-15T00:24:17.090Z,36.80
2018-03-15T00:24:49.374Z,36.90
2018-03-15T00:25:21.728Z,36.90
2018-03-15T00:25:53.898Z,36.90
2018-03-15T00:26:26.192Z,36.90
2018-03-15T00:26:58.433Z,37.00
2018-03-15T00:27:30.430Z,37.00
2018-03-15T00:28:02.633Z,36.80
2018-03-15T00:28:34.804Z,36.80
2018-03-15T00:29:07.109Z,36.90
2018-03-15T00:29:39.115Z,37.00
2018-03-15T00:30:11.907Z,36.80
2018-03-15T00:30:43.929Z,36.80
2018-03-15T00:31:16.730Z,36.80
2018-03-15T00:31:48.760Z,36.80
2018-03-15T00:32:20.798Z,36.80
2018-03-15T00:32:53.643Z,37.00
2018-03-15T00:33:25.647Z,37.00
2018-03-15T00:33:57.670Z,36.90
2018-03-15T00:34:30.469Z,36.90
2018-03-15T00:35:02.492Z,36.80
2018-03-15T00:35:35.281Z,36.80
2018-03-15T00:36:07.325Z,36.80
2018-03-15T00:36:39.375Z,36.90
2018-03-15T00:37:11.400Z,36.90
2018-03-15T00:37:43.426Z,36.90
2018-03-15T00:38:15.456Z,36.90
2018-03-15T00:38:47.530Z,36.80
2018-03-15T00:39:19.573Z,36.70
2018-03-15T00:39:51.595Z,36.90
2018-03-15T00:40:23.622Z,36.80
2018-03-15T00:40:56.424Z,36.90
2018-03-15T00:41:28.449Z,36.90
2018-03-15T00:42:00.526Z,36.90
2018-03-15T00:42:32.581Z,36.80
2018-03-15T00:43:04.618Z,36.90
2018-03-15T00:43:36.653Z,36.90
2018-03-15T00:44:09.435Z,36.90
2018-03-15T00:44:41.461Z,36.90
2018-03-15T00:45:14.265Z,36.90
2018-03-15T00:45:46.306Z,36.90
2018-03-15T00:46:18.352Z,36.80
2018-03-15T00:46:51.133Z,36.80
2018-03-15T00:47:23.175Z,36.70
2018-03-15T00:47:55.213Z,36.90
2018-03-15T00:48:27.999Z,36.90
2018-03-15T00:49:00.063Z,36.90
2018-03-15T00:49:32.093Z,36.80
2018-03-15T00:50:04.136Z,36.80
2018-03-15T00:50:36.981Z,36.90
2018-03-15T00:51:09.032Z,36.90
2018-03-15T00:51:41.071Z,37.00
2018-03-15T00:52:13.102Z,36.90
2018-03-15T00:52:45.138Z,36.90
2018-03-15T00:53:17.173Z,36.90
2018-03-15T00:53:49.967Z,36.80
2018-03-15T00:54:22.011Z,36.80
2018-03-15T00:54:54.058Z,36.80
2018-03-15T00:55:26.110Z,36.90
2018-03-15T00:55:58.161Z,36.90
2018-03-15T00:56:30.180Z,36.90
2018-03-15T00:57:03.049Z,36.90
2018-03-15T00:57:35.074Z,36.80
2018-03-15T00:58:07.097Z,36.80
2018-03-15T00:58:39.139Z,36.90
2018-03-15T00:59:11.186Z,36.80
2018-03-15T00:59:43.217Z,36.90
2018-03-15T01:00:16.014Z,36.90
2018-03-15T01:00:48.036Z,36.80
2018-03-15T01:01:20.826Z,36.80
2018-03-15T01:01:52.872Z,36.80
2018-03-15T01:02:24.959Z,36.80
2018-03-15T01:02:56.982Z,36.80
2018-03-15T01:03:29.040Z,36.80
2018-03-15T01:04:01.079Z,36.80
2018-03-15T01:04:33.152Z,36.70
2018-03-15T01:05:05.184Z,36.80
2018-03-15T01:05:37.214Z,36.90
2018-03-15T01:06:10.002Z,36.80
2018-03-15T01:06:42.038Z,36.80
2018-03-15T01:07:14.830Z,36.90
2018-03-15T01:07:46.865Z,36.90
2018-03-15T01:08:18.910Z,36.90
2018-03-15T01:08:51.704Z,36.80
2018-03-15T01:09:23.721Z,36.80
2018-03-15T01:09:56.508Z,36.90
2018-03-15T01:10:28.529Z,36.90
2018-03-15T01:11:00.566Z,36.70
2018-03-15T01:11:32.586Z,36.80
2018-03-15T01:12:04.621Z,36.80
2018-03-15T01:12:36.652Z,36.80
2018-03-15T01:13:08.689Z,36.90
2018-03-15T01:13:40.743Z,36.70
2018-03-15T01:14:12.781Z,36.80
2018-03-15T01:14:44.814Z,36.90
2018-03-15T01:15:17.592Z,36.90
2018-03-15T01:15:49.629Z,36.90
2018-03-15T01:16:22.426Z,36.80
2018-03-15T01:16:54.467Z,36.80
2018-03-15T01:17:26.524Z,36.80
2018-03-15T01:17:59.352Z,36.80
2018-03-15T01:18:31.413Z,36.80
2018-03-15T01:19:03.467Z,36.80
2018-03-15T01:19:36.281Z,36.80
2018-03-15T01:20:08.309Z,36.80
2018-03-15T01:20:40.349Z,36.90
2018-03-15T01:21:13.146Z,37.00
2018-03-15T01:21:45.179Z,36.90
2018-03-15T01:22:17.269Z,36.70
2018-03-15T01:22:49.282Z,36.80
2018-03-15T01:23:21.326Z,36.70
2018-03-15T01:23:54.121Z,36.80
2018-03-15T01:24:26.153Z,36.80
2018-03-15T01:24:58.193Z,36.90
2018-03-15T01:25:30.978Z,36.80
2018-03-15T01:26:03.009Z,36.80
2018-03-15T01:26:35.790Z,36.90
2018-03-15T01:27:07.825Z,36.80
2018-03-15T01:27:40.630Z,36.80
2018-03-15T01:28:12.677Z,36.80
2018-03-15T01:28:44.702Z,36.80
2018-03-15T01:29:17.500Z,36.90
2018-03-15T01:29:49.539Z,36.90
2018-03-15T01:30:21.554Z,36.80
2018-03-15T01:30:53.584Z,36.90
2018-03-15T01:31:25.619Z,36.90
2018-03-15T01:31:57.650Z,36.80
2018-03-15T01:32:29.682Z,36.80
2018-03-15T01:33:02.480Z,36.70
2018-03-15T01:33:34.507Z,36.70
2018-03-15T01:34:06.529Z,36.90
2018-03-15T01:34:38.562Z,36.80
2018-03-15T01:35:10.587Z,36.90
2018-03-15T01:35:42.617Z,36.90
2018-03-15T01:36:14.652Z,36.90
2018-03-15T01:36:47.437Z,36.90
2018-03-15T01:37:19.498Z,36.90
2018-03-15T01:37:51.525Z,36.80
2018-03-15T01:38:24.357Z,36.90
2018-03-15T01:38:56.361Z,36.90
2018-03-15T01:39:28.380Z,36.80
2018-03-15T01:40:00.412Z,36.90
2018-03-15T01:40:32.444Z,36.90
2018-03-15T01:41:04.510Z,36.80
2018-03-15T01:41:36.528Z,36.70
2018-03-15T01:42:08.591Z,36.80
2018-03-15T01:42:40.664Z,36.90
2018-03-15T01:43:12.705Z,36.80
2018-03-15T01:43:44.745Z,36.90
2018-03-15T01:44:16.784Z,36.70
2018-03-15T01:44:48.805Z,36.80
2018-03-15T01:45:21.597Z,36.90
2018-03-15T01:45:53.639Z,36.80
2018-03-15T01:46:25.666Z,36.80
2018-03-15T01:46:57.700Z,36.80
2018-03-15T01:47:29.729Z,36.90
2018-03-15T01:48:01.764Z,36.80
2018-03-15T01:48:33.793Z,36.70
2018-03-15T01:49:06.602Z,36.90
2018-03-15T01:49:38.628Z,36.80
2018-03-15T01:50:10.669Z,36.80
2018-03-15T01:50:43.470Z,36.80
2018-03-15T01:51:15.541Z,36.80
2018-03-15T01:51:47.569Z,36.90
2018-03-15T01:52:19.621Z,36.80
2018-03-15T01:52:51.655Z,36.90
2018-03-15T01:53:23.714Z,36.90
2018-03-15T01:53:55.738Z,36.80
2018-03-15T01:54:27.797Z,36.80
2018-03-15T01:54:59.840Z,36.80
2018-03-15T01:55:32.653Z,36.90
2018-03-15T01:56:04.692Z,36.90
2018-03-15T01:56:36.721Z,36.90
2018-03-15T01:57:08.763Z,36.80
2018-03-15T01:57:41.560Z,36.90
2018-03-15T01:58:13.592Z,36.80
2018-03-15T01:58:45.628Z,36.80
2018-03-15T01:59:18.437Z,36.80
2018-03-15T01:59:50.477Z,36.80
2018-03-15T02:00:22.506Z,36.80
2018-03-15T02:00:55.309Z,36.90
2018-03-15T02:01:27.336Z,36.90
2018-03-15T02:01:59.384Z,36.80
2018-03-15T02:02:31.435Z,36.80
2018-03-15T02:03:04.227Z,36.90
2018-03-15T02:03:36.255Z,36.90
2018-03-15T02:04:09.051Z,36.90
2018-03-15T02:04:41.085Z,36.80
2018-03-15T02:05:13.114Z,36.80
2018-03-15T02:05:45.918Z,36.90
2018-03-15T02:06:17.938Z,36.90
2018-03-15T02:06:50.731Z,36.90
2018-03-15T02:07:22.770Z,36.90
2018-03-15T02:07:54.830Z,36.70
2018-03-15T02:08:26.862Z,36.90
2018-03-15T02:08:59.684Z,37.00
2018-03-15T02:09:31.715Z,36.90
2018-03-15T02:10:03.740Z,36.90
2018-03-15T02:10:36.556Z,36.90
2018-03-15T02:11:08.573Z,36.90
2018-03-15T02:11:40.607Z,36.80
2018-03-15T02:12:13.399Z,36.90
2018-03-15T02:12:45.422Z,36.80
2018-03-15T02:13:18.214Z,36.90
2018-03-15T02:13:50.281Z,36.90
2018-03-15T02:14:22.359Z,36.90
2018-03-15T02:14:54.394Z,36.90
2018-03-15T02:15:26.426Z,36.90
2018-03-15T02:15:58.458Z,36.90
2018-03-15T02:16:31.253Z,36.90
2018-03-15T02:17:03.296Z,36.90
2018-03-15T02:17:35.321Z,36.90
2018-03-15T02:18:08.117Z,36.80
2018-03-15T02:18:40.142Z,36.80
2018-03-15T02:19:12.935Z,36.80
2018-03-15T02:19:44.971Z,36.80
2018-03-15T02:20:17.004Z,36.80
2018-03-15T02:20:49.804Z,36.80
2018-03-15T02:21:21.846Z,36.80
2018-03-15T02:21:53.877Z,37.40
2018-03-15T02:22:26.673Z,36.90
2018-03-15T02:22:58.703Z,36.90
2018-03-15T02:23:31.506Z,36.80
2018-03-15T02:24:03.548Z,36.80
2018-03-15T02:24:35.590Z,36.80
2018-03-15T02:25:08.412Z,36.80
2018-03-15T02:25:40.433Z,36.80
2018-03-15T02:26:12.473Z,36.80
2018-03-15T02:26:44.512Z,36.90
2018-03-15T02:27:17.312Z,36.90
2018-03-15T02:27:49.344Z,36.80
2018-03-15T02:28:21.370Z,36.80
2018-03-15T02:28:54.180Z,36.80
2018-03-15T02:29:26.205Z,36.80
2018-03-15T02:29:58.273Z,36.90
2018-03-15T02:30:30.308Z,36.80
2018-03-15T02:31:02.354Z,36.90
2018-03-15T02:31:35.146Z,36.90
2018-03-15T02:32:07.161Z,36.90
2018-03-15T02:32:39.961Z,37.00
2018-03-15T02:33:12.020Z,37.00
2018-03-15T02:33:44.074Z,36.90
2018-03-15T02:34:16.109Z,36.90
2018-03-15T02:34:48.142Z,36.80
2018-03-15T02:35:20.980Z,36.90
2018-03-15T02:35:53.002Z,36.90
2018-03-15T02:36:25.053Z,36.90
2018-03-15T02:36:57.081Z,37.50
2018-03-15T02:37:29.122Z,37.00
2018-03-15T02:38:01.917Z,37.00
2018-03-15T02:38:33.958Z,37.00
2018-03-15T02:39:05.978Z,37.00
2018-03-15T02:39:38.787Z,36.90
2018-03-15T02:40:10.811Z,36.90
2018-03-15T02:40:43.628Z,36.90
2018-03-15T02:41:15.653Z,36.90
2018-03-15T02:41:47.693Z,37.00
2018-03-15T02:42:19.737Z,37.10
2018-03-15T02:42:52.530Z,36.80
2018-03-15T02:43:24.549Z,36.80
2018-03-15T02:43:57.371Z,37.00
2018-03-15T02:44:29.396Z,37.00
2018-03-15T02:45:01.437Z,37.00
2018-03-15T02:45:33.457Z,37.00
2018-03-15T02:46:05.490Z,36.90
2018-03-15T02:46:37.495Z,36.90
2018-03-15T02:47:09.544Z,36.90
2018-03-15T02:47:41.599Z,37.00
2018-03-15T02:48:14.373Z,37.00
2018-03-15T02:48:46.472Z,37.00
2018-03-15T02:49:18.490Z,36.90
2018-03-15T02:49:50.526Z,36.90
2018-03-15T02:50:22.554Z,36.90
2018-03-15T02:50:55.349Z,37.00
2018-03-15T02:51:27.372Z,36.90
2018-03-15T02:52:00.173Z,37.00
2018-03-15T02:52:32.242Z,37.00
2018-03-15T02:53:04.257Z,36.90
2018-03-15T02:53:37.038Z,36.90
2018-03-15T02:54:09.098Z,36.90
2018-03-15T02:54:41.141Z,36.90
2018-03-15T02:55:13.182Z,36.90
2018-03-15T02:55:45.222Z,36.80
2018-03-15T02:56:18.094Z,37.00
2018-03-15T02:56:50.876Z,37.10
2018-03-15T02:57:22.933Z,37.00
2018-03-15T02:57:54.958Z,36.90
2018-03-15T02:58:27.760Z,37.00
2018-03-15T02:58:59.793Z,36.90
2018-03-15T02:59:32.577Z,36.90
2018-03-15T03:00:04.618Z,36.90
2018-03-15T03:00:36.658Z,37.00
2018-03-15T03:01:09.452Z,37.10
2018-03-15T03:01:41.492Z,37.10
2018-03-15T03:02:13.528Z,36.90
2018-03-15T03:02:46.354Z,37.10
2018-03-15T03:03:18.392Z,37.10
2018-03-15T03:03:50.442Z,37.00
2018-03-15T03:04:28.683Z,37.00
2018-03-15T03:05:05.693Z,37.00
2018-03-15T03:05:37.725Z,36.90
2018-03-15T03:06:09.780Z,37.10
2018-03-15T03:06:41.819Z,36.90
2018-03-15T03:07:14.643Z,37.00
2018-03-15T03:07:46.655Z,37.00
2018-03-15T03:08:18.701Z,37.10
2018-03-15T03:08:51.489Z,37.10
2018-03-15T03:09:23.529Z,37.10
2018-03-15T03:09:55.565Z,37.10
2018-03-15T03:10:28.354Z,37.00
2018-03-15T03:11:00.385Z,37.00
2018-03-15T03:11:33.185Z,37.20
2018-03-15T03:12:05.244Z,37.10
2018-03-15T03:12:37.274Z,37.10
2018-03-15T03:13:09.293Z,37.10
2018-03-15T03:13:42.109Z,37.00
2018-03-15T03:14:14.142Z,37.00
2018-03-15T03:14:46.201Z,37.10
2018-03-15T03:15:18.250Z,37.00
2018-03-15T03:15:50.270Z,37.10
2018-03-15T03:16:23.071Z,37.10
2018-03-15T03:16:55.092Z,37.10
2018-03-15T03:17:27.925Z,37.20
2018-03-15T03:18:00.020Z,37.20
2018-03-15T03:18:32.047Z,37.00
2018-03-15T03:19:04.082Z,36.80
2018-03-15T03:19:36.100Z,36.90
2018-03-15T03:20:08.137Z,36.90
2018-03-15T03:20:40.170Z,36.90
2018-03-15T03:21:12.973Z,37.00
2018-03-15T03:21:45.006Z,37.00
2018-03-15T03:22:17.068Z,37.10
2018-03-15T03:22:49.135Z,37.00
2018-03-15T03:23:21.168Z,36.90
2018-03-15T03:23:53.201Z,36.90
2018-03-15T03:24:26.012Z,37.00
2018-03-15T03:24:58.041Z,37.00
2018-03-15T03:25:30.077Z,37.00
2018-03-15T03:26:02.206Z,37.00
2018-03-15T03:26:34.226Z,37.10
2018-03-15T03:27:06.232Z,37.00
2018-03-15T03:27:38.328Z,36.90
2018-03-15T03:28:10.386Z,37.00
2018-03-15T03:28:42.394Z,37.10
2018-03-15T03:29:14.473Z,37.10
2018-03-15T03:29:46.500Z,37.10
2018-03-15T03:30:18.536Z,37.10
2018-03-15T03:30:51.314Z,37.10
2018-03-15T03:31:23.349Z,37.00
2018-03-15T03:31:56.134Z,37.10
2018-03-15T03:32:28.177Z,37.10
2018-03-15T03:33:00.960Z,37.10
2018-03-15T03:33:33.011Z,37.10
2018-03-15T03:34:05.032Z,37.10
2018-03-15T03:34:37.866Z,37.10
2018-03-15T03:35:09.894Z,37.10
2018-03-15T03:35:41.928Z,37.00
2018-03-15T03:36:13.974Z,37.10
2018-03-15T03:36:46.025Z,37.10
2018-03-15T03:37:18.829Z,37.10
2018-03-15T03:37:50.899Z,37.00
2018-03-15T03:38:22.940Z,37.00
2018-03-15T03:38:54.967Z,37.10
2018-03-15T03:39:27.000Z,37.00
2018-03-15T03:39:59.787Z,37.20
2018-03-15T03:40:31.824Z,37.20
2018-03-15T03:41:03.876Z,37.10
2018-03-15T03:41:36.654Z,37.20
2018-03-15T03:42:08.700Z,37.10
2018-03-15T03:42:40.749Z,37.00
2018-03-15T03:43:12.804Z,37.10
2018-03-15T03:43:44.841Z,37.00
2018-03-15T03:44:17.640Z,37.20
2018-03-15T03:44:49.664Z,37.10
2018-03-15T03:45:21.729Z,37.10
2018-03-15T03:45:53.764Z,37.00
2018-03-15T03:46:26.603Z,37.00
2018-03-15T03:46:58.602Z,37.00
2018-03-15T03:47:30.642Z,37.00
2018-03-15T03:48:02.683Z,37.00
2018-03-15T03:48:35.469Z,37.00
2018-03-15T03:49:07.555Z,37.00
2018-03-15T03:49:39.582Z,37.30
2018-03-15T03:50:11.625Z,37.10
2018-03-15T03:50:43.677Z,36.90
2018-03-15T03:51:15.740Z,36.90
2018-03-15T03:51:47.779Z,37.00
2018-03-15T03:52:19.806Z,37.00
2018-03-15T03:52:52.631Z,37.00
2018-03-15T03:53:24.670Z,37.00
2018-03-15T03:53:56.712Z,37.00
2018-03-15T03:54:28.753Z,37.20
2018-03-15T03:55:00.778Z,37.00
2018-03-15T03:55:33.580Z,37.20
2018-03-15T03:56:05.629Z,37.20
2018-03-15T03:56:37.688Z,37.20
2018-03-15T03:57:09.712Z,37.10
2018-03-15T03:57:42.520Z,37.00
2018-03-15T03:58:14.561Z,37.00
2018-03-15T03:58:46.600Z,37.10
2018-03-15T03:59:18.632Z,37.10
2018-03-15T03:59:51.433Z,37.00
2018-03-15T04:00:23.470Z,37.00
2018-03-15T04:00:55.493Z,37.10
2018-03-15T04:01:27.533Z,37.10
2018-03-15T04:01:59.574Z,37.10
2018-03-15T04:02:31.593Z,37.10
2018-03-15T04:03:03.622Z,37.00
2018-03-15T04:03:35.682Z,36.90
2018-03-15T04:04:08.475Z,37.20
2018-03-15T04:04:40.602Z,37.20
2018-03-15T04:05:12.679Z,37.10
2018-03-15T04:05:44.698Z,37.20
2018-03-15T04:06:16.722Z,37.10
2018-03-15T04:06:48.757Z,37.20
2018-03-15T04:07:20.775Z,37.10
2018-03-15T04:07:52.813Z,37.10
2018-03-15T04:08:24.850Z,37.20
2018-03-15T04:08:57.687Z,37.10
2018-03-15T04:09:29.725Z,37.10
2018-03-15T04:10:01.752Z,37.00
2018-03-15T04:10:33.769Z,37.00
2018-03-15T04:11:06.574Z,37.00
2018-03-15T04:11:38.607Z,37.00
2018-03-15T04:12:10.633Z,37.00
2018-03-15T04:12:43.426Z,37.10
2018-03-15T04:13:15.467Z,37.10
2018-03-15T04:13:48.251Z,37.10
2018-03-15T04:14:20.278Z,37.00
2018-03-15T04:14:53.085Z,37.00
2018-03-15T04:15:25.105Z,37.00
2018-03-15T04:15:57.941Z,37.00
2018-03-15T04:16:29.989Z,37.00
2018-03-15T04:17:02.028Z,37.10
2018-03-15T04:17:34.053Z,37.00
2018-03-15T04:18:06.268Z,37.20
2018-03-15T04:18:38.412Z,37.10
2018-03-15T04:19:10.434Z,37.10
2018-03-15T04:19:42.471Z,37.10
2018-03-15T04:20:14.494Z,37.00
2018-03-15T04:20:46.533Z,37.00
2018-03-15T04:21:19.323Z,37.70
2018-03-15T04:21:51.356Z,37.10
2018-03-15T04:22:24.152Z,37.00
2018-03-15T04:22:56.206Z,37.00
2018-03-15T04:23:28.235Z,37.00
2018-03-15T04:24:01.019Z,37.20
2018-03-15T04:24:33.054Z,37.10
2018-03-15T04:25:05.081Z,37.00
2018-03-15T04:25:37.142Z,37.10
2018-03-15T04:26:09.211Z,37.00
2018-03-15T04:26:41.281Z,37.20
2018-03-15T04:27:13.315Z,37.10
2018-03-15T04:27:46.113Z,37.10
2018-03-15T04:28:18.188Z,37.00
2018-03-15T04:28:50.972Z,37.10
2018-03-15T04:29:23.009Z,37.10
2018-03-15T04:29:55.060Z,37.10
2018-03-15T04:30:27.082Z,37.20
2018-03-15T04:30:59.123Z,37.10
2018-03-15T04:31:31.151Z,37.20
2018-03-15T04:32:03.947Z,37.10
2018-03-15T04:32:36.031Z,37.10
2018-03-15T04:33:08.053Z,36.90
2018-03-15T04:33:40.074Z,37.00
2018-03-15T04:34:12.887Z,37.00
2018-03-15T04:34:44.903Z,37.00
2018-03-15T04:35:17.692Z,37.00
2018-03-15T04:35:49.745Z,37.00
2018-03-15T04:36:21.774Z,37.00
2018-03-15T04:36:53.808Z,37.00
2018-03-15T04:37:26.617Z,36.90
2018-03-15T04:37:58.656Z,36.90
2018-03-15T04:38:30.685Z,37.10
2018-03-15T04:39:03.482Z,36.90
2018-03-15T04:39:35.499Z,36.90
2018-03-15T04:40:08.300Z,37.10
2018-03-15T04:40:40.325Z,37.70
2018-03-15T04:41:13.121Z,37.00
2018-03-15T04:41:45.146Z,37.00
2018-03-15T04:42:17.963Z,37.10
2018-03-15T04:42:49.994Z,37.00
2018-03-15T04:43:22.097Z,37.60
2018-03-15T04:43:54.181Z,37.00
2018-03-15T04:44:26.216Z,37.10
2018-03-15T04:44:59.017Z,37.10
2018-03-15T04:45:31.046Z,37.10
2018-03-15T04:46:03.832Z,37.10
2018-03-15T04:46:35.895Z,37.10
2018-03-15T04:47:07.927Z,37.00
2018-03-15T04:47:39.931Z,37.10
2018-03-15T04:48:11.950Z,37.20
2018-03-15T04:48:44.741Z,36.90
2018-03-15T04:49:16.766Z,36.90
2018-03-15T04:49:49.647Z,37.20
2018-03-15T04:50:22.441Z,37.10
2018-03-15T04:50:54.460Z,37.10
2018-03-15T04:51:27.256Z,37.00
2018-03-15T04:51:59.288Z,36.90
2018-03-15T04:52:32.085Z,37.10
2018-03-15T04:53:04.114Z,37.10
2018-03-15T04:53:36.920Z,37.10
2018-03-15T04:54:08.941Z,37.10
2018-03-15T04:54:40.973Z,37.20
2018-03-15T04:55:12.989Z,37.00
2018-03-15T04:55:45.013Z,37.00
2018-03-15T04:56:17.034Z,36.90
2018-03-15T04:56:49.835Z,37.00
2018-03-15T04:57:21.876Z,36.90
2018-03-15T04:57:53.892Z,37.00
2018-03-15T04:58:26.681Z,37.10
2018-03-15T04:58:58.708Z,37.10
2018-03-15T04:59:30.733Z,37.00
2018-03-15T05:00:02.788Z,37.10
2018-03-15T05:00:34.815Z,37.20
2018-03-15T05:01:06.833Z,37.10
2018-03-15T05:01:38.863Z,37.20
2018-03-15T05:02:10.885Z,36.80
2018-03-15T05:02:42.916Z,31.20
2018-03-15T05:03:14.954Z,31.10
2018-03-15T05:03:46.986Z,31.80
2018-03-15T05:04:19.037Z,32.30
2018-03-15T05:04:51.815Z,33.60
2018-03-15T05:05:23.862Z,33.70
2018-03-15T05:05:55.902Z,34.30
2018-03-15T05:06:28.701Z,35.30
2018-03-15T05:07:00.734Z,35.30
2018-03-15T05:07:32.785Z,35.80
2018-03-15T05:08:04.810Z,36.20
2018-03-15T05:08:36.841Z,36.50
2018-03-15T05:09:08.955Z,36.80
2018-03-15T05:09:41.006Z,36.90
2018-03-15T05:10:13.045Z,37.10
2018-03-15T05:10:45.095Z,37.20
2018-03-15T05:11:17.166Z,37.40
2018-03-15T05:11:49.214Z,37.30
2018-03-15T05:12:21.258Z,37.40
2018-03-15T05:12:53.305Z,37.40
2018-03-15T05:13:25.359Z,37.50
2018-03-15T05:13:57.370Z,37.50
2018-03-15T05:14:29.395Z,37.50
2018-03-15T05:15:01.432Z,37.50
2018-03-15T05:15:33.495Z,37.50
2018-03-15T05:16:05.591Z,37.50
2018-03-15T05:16:37.577Z,37.60
2018-03-15T05:17:09.631Z,37.60
2018-03-15T05:17:41.645Z,37.60
2018-03-15T05:18:14.454Z,37.60
2018-03-15T05:18:46.473Z,37.60
2018-03-15T05:19:19.284Z,37.70
2018-03-15T05:19:51.304Z,37.60
2018-03-15T05:20:23.363Z,37.60
2018-03-15T05:20:55.399Z,38.20
2018-03-15T05:21:28.215Z,37.50
2018-03-15T05:22:00.249Z,37.40
2018-03-15T05:22:32.293Z,37.50
2018-03-15T05:23:04.321Z,37.60
2018-03-15T05:23:37.116Z,38.10
2018-03-15T05:24:09.148Z,38.00
2018-03-15T05:24:41.175Z,37.90
2018-03-15T05:25:13.279Z,38.10
2018-03-15T05:25:45.262Z,38.10
2018-03-15T05:26:17.293Z,38.20
2018-03-15T05:26:49.312Z,38.00
2018-03-15T05:27:21.338Z,38.10
2018-03-15T05:27:54.129Z,37.90
2018-03-15T05:28:26.143Z,37.90
2018-03-15T05:28:58.201Z,37.80
2018-03-15T05:29:30.262Z,37.70
2018-03-15T05:30:03.085Z,37.60
2018-03-15T05:30:35.118Z,37.60
2018-03-15T05:31:07.138Z,37.50
2018-03-15T05:31:39.940Z,37.50
2018-03-15T05:32:11.960Z,37.50
2018-03-15T05:32:44.801Z,37.40
2018-03-15T05:33:16.825Z,37.40
2018-03-15T05:33:48.850Z,37.40
2018-03-15T05:34:20.884Z,37.30
2018-03-15T05:34:53.671Z,37.30
2018-03-15T05:35:25.711Z,37.30
2018-03-15T05:35:57.762Z,37.20
2018-03-15T05:36:30.563Z,37.70
2018-03-15T05:37:02.601Z,37.70
2018-03-15T05:37:34.628Z,38.20
2018-03-15T05:38:07.457Z,38.80
2018-03-15T05:38:39.466Z,38.90
2018-03-15T05:39:11.548Z,41.60
2018-03-15T05:39:43.598Z,41.90
2018-03-15T05:40:15.740Z,43.10
2018-03-15T05:40:47.779Z,42.60
2018-03-15T05:41:19.798Z,43.10
2018-03-15T05:41:52.612Z,44.10
2018-03-15T05:42:24.648Z,44.10
2018-03-15T05:42:56.685Z,44.50
2018-03-15T05:43:29.484Z,44.10
2018-03-15T05:44:01.493Z,44.10
2018-03-15T05:44:34.284Z,43.90
2018-03-15T05:45:06.324Z,44.00
2018-03-15T05:45:39.114Z,44.20
2018-03-15T05:46:11.149Z,44.30
2018-03-15T05:46:43.189Z,44.00
2018-03-15T05:47:15.976Z,43.70
2018-03-15T05:47:48.018Z,43.60
2018-03-15T05:48:20.046Z,44.10
2018-03-15T05:48:52.073Z,44.40
2018-03-15T05:49:24.104Z,43.80
2018-03-15T05:49:56.136Z,44.10
2018-03-15T05:50:28.189Z,43.80
2018-03-15T05:51:00.370Z,43.30
2018-03-15T05:51:32.375Z,43.00
2018-03-15T05:52:05.209Z,43.70
2018-03-15T05:52:37.251Z,43.70
2018-03-15T05:53:09.276Z,43.30
2018-03-15T05:53:41.284Z,43.20
2018-03-15T05:54:14.105Z,42.60
2018-03-15T05:54:46.164Z,42.50
2018-03-15T05:55:18.227Z,43.10
2018-03-15T05:55:50.246Z,42.50
2018-03-15T05:56:22.298Z,43.40
2018-03-15T05:56:54.339Z,43.00
2018-03-15T05:57:26.403Z,42.60
2018-03-15T05:57:59.169Z,42.90
2018-03-15T05:58:31.190Z,42.90
2018-03-15T05:59:03.996Z,42.10
2018-03-15T05:59:36.013Z,42.10
2018-03-15T06:00:08.825Z,42.50
2018-03-15T06:00:40.853Z,42.40
2018-03-15T06:01:12.899Z,42.10
2018-03-15T06:01:45.681Z,42.20
2018-03-15T06:02:17.733Z,42.20
2018-03-15T06:02:49.750Z,42.30
2018-03-15T06:03:22.537Z,41.60
2018-03-15T06:03:54.566Z,41.60
2018-03-15T06:04:27.360Z,41.60
2018-03-15T06:04:59.398Z,41.60
2018-03-15T06:05:32.205Z,41.80
2018-03-15T06:06:04.230Z,41.80
2018-03-15T06:06:36.285Z,41.50
2018-03-15T06:07:08.312Z,41.40
2018-03-15T06:07:41.118Z,41.40
2018-03-15T06:08:13.141Z,41.40
2018-03-15T06:08:45.942Z,41.60
2018-03-15T06:09:17.950Z,41.50
2018-03-15T06:09:50.776Z,41.20
2018-03-15T06:10:22.840Z,41.90
2018-03-15T06:10:54.868Z,41.20
2018-03-15T06:11:26.914Z,41.20
2018-03-15T06:11:58.978Z,41.20
2018-03-15T06:12:31.015Z,41.10
2018-03-15T06:13:03.046Z,40.90
2018-03-15T06:13:35.109Z,40.80
2018-03-15T06:14:07.157Z,41.10
2018-03-15T06:14:39.233Z,41.10
2018-03-15T06:15:11.275Z,40.80
2018-03-15T06:15:43.302Z,40.50
2018-03-15T06:16:15.368Z,40.60
2018-03-15T06:16:47.445Z,40.80
2018-03-15T06:17:19.464Z,41.30
2018-03-15T06:17:51.499Z,40.50
2018-03-15T06:18:24.316Z,40.70
2018-03-15T06:18:56.349Z,40.60
2018-03-15T06:19:28.387Z,40.40
2018-03-15T06:20:00.432Z,40.50
2018-03-15T06:20:33.220Z,40.40
2018-03-15T06:21:05.250Z,40.30
2018-03-15T06:21:37.533Z,40.40
2018-03-15T06:22:09.565Z,40.20
2018-03-15T06:22:41.638Z,40.10
2018-03-15T06:23:13.806Z,40.30
2018-03-15T06:23:45.824Z,40.00
2018-03-15T06:24:17.862Z,39.90
2018-03-15T06:24:50.673Z,39.80
2018-03-15T06:25:22.699Z,39.80
2018-03-15T06:25:54.731Z,39.80
2018-03-15T06:26:27.524Z,39.60
2018-03-15T06:26:59.580Z,39.60
2018-03-15T06:27:31.640Z,39.70
2018-03-15T06:28:03.664Z,39.70
2018-03-15T06:28:35.695Z,39.70
2018-03-15T06:29:08.490Z,39.90
2018-03-15T06:29:40.524Z,39.90
2018-03-15T06:30:13.327Z,40.10
2018-03-15T06:30:45.348Z,40.10
2018-03-15T06:31:17.382Z,39.80
2018-03-15T06:31:50.179Z,39.60
2018-03-15T06:32:22.241Z,39.60
2018-03-15T06:32:54.700Z,39.60
2018-03-15T06:33:27.471Z,39.70
2018-03-15T06:33:59.801Z,39.70
2018-03-15T06:34:31.835Z,39.50
2018-03-15T06:35:03.863Z,39.60
2018-03-15T06:35:35.921Z,39.30
2018-03-15T06:36:07.944Z,39.40
2018-03-15T06:36:39.973Z,39.50
2018-03-15T06:37:12.016Z,39.40
2018-03-15T06:37:44.810Z,39.50
2018-03-15T06:38:16.832Z,39.50
2018-03-15T06:38:49.641Z,39.50
2018-03-15T06:39:21.658Z,39.50
2018-03-15T06:39:54.449Z,39.40
2018-03-15T06:40:26.483Z,39.40
2018-03-15T06:40:58.519Z,39.40
2018-03-15T06:41:31.311Z,39.30
2018-03-15T06:42:03.372Z,39.30
2018-03-15T06:42:35.400Z,39.30
2018-03-15T06:43:07.451Z,39.20
2018-03-15T06:43:40.229Z,39.30
2018-03-15T06:44:12.297Z,39.30
2018-03-15T06:44:44.317Z,39.30
2018-03-15T06:45:17.123Z,39.30
2018-03-15T06:45:49.146Z,39.30
2018-03-15T06:46:21.956Z,39.20
2018-03-15T06:46:53.995Z,39.20
2018-03-15T06:47:26.051Z,39.30
2018-03-15T06:47:58.070Z,39.30
2018-03-15T06:48:30.128Z,39.10
2018-03-15T06:49:02.189Z,39.20
2018-03-15T06:49:34.951Z,39.00
2018-03-15T06:50:06.982Z,39.00
2018-03-15T06:50:39.773Z,39.10
2018-03-15T06:51:11.829Z,39.10
2018-03-15T06:51:43.867Z,39.10
2018-03-15T06:52:15.897Z,38.90
2018-03-15T06:52:48.714Z,38.90
2018-03-15T06:53:20.788Z,38.90
2018-03-15T06:53:52.823Z,39.00
2018-03-15T06:54:24.862Z,39.10
2018-03-15T06:54:56.879Z,39.10